createdAt,value
2023-03-04T00:01:59.801Z,16.73
2023-03-04T00:04:28.282Z,17.93
2023-03-04T00:06:58.186Z,18.97
2023-03-04T00:09:26.534Z,17.70
2023-03-04T00:11:54.977Z,17.53
2023-03-04T00:14:24.083Z,18.10
2023-03-04T00:16:52.475Z,18.53
2023-03-04T00:19:20.728Z,17.43
2023-03-04T00:21:49.029Z,16.80
2023-03-04T00:24:18.694Z,17.23
2023-03-04T00:26:47.232Z,16.70
2023-03-04T00:29:15.538Z,21.48
2023-03-04T00:31:55.775Z,18.77
2023-03-04T00:34:24.168Z,15.80
2023-03-04T00:36:52.427Z,14.27
2023-03-04T00:39:22.116Z,14.80
2023-03-04T00:41:50.390Z,13.73
2023-03-04T00:44:18.958Z,14.30
2023-03-04T00:46:47.229Z,13.93
2023-03-04T00:49:15.530Z,12.87
2023-03-04T00:51:43.781Z,13.23
2023-03-04T00:54:12.286Z,13.17
2023-03-04T00:56:41.918Z,13.17
2023-03-04T00:59:10.159Z,14.00
2023-03-04T01:01:38.457Z,12.57
2023-03-04T01:04:06.800Z,12.37
2023-03-04T01:06:35.080Z,12.27
2023-03-04T01:09:03.336Z,12.77
2023-03-04T01:11:31.559Z,12.50
2023-03-04T01:14:01.190Z,12.43
2023-03-04T01:16:29.503Z,11.80
2023-03-04T01:18:57.712Z,12.93
2023-03-04T01:21:25.933Z,12.30
2023-03-04T01:23:54.158Z,11.83
2023-03-04T01:26:23.086Z,11.73
2023-03-04T01:28:51.391Z,11.87
2023-03-04T01:31:21.027Z,12.20
2023-03-04T01:33:49.246Z,12.47
2023-03-04T01:36:17.563Z,12.50
2023-03-04T01:38:46.084Z,12.97
2023-03-04T01:41:24.874Z,13.40
2023-03-04T01:43:53.489Z,13.00
2023-03-04T01:46:23.219Z,13.27
2023-03-04T01:48:51.788Z,13.10
2023-03-04T01:51:22.463Z,12.37
2023-03-04T01:53:54.827Z,13.63
2023-03-04T01:56:26.409Z,11.90
2023-03-04T01:59:11.287Z,12.53
2023-03-04T02:01:44.883Z,12.73
2023-03-04T02:04:14.133Z,13.67
2023-03-04T02:06:43.573Z,12.97
2023-03-04T02:09:12.754Z,13.07
2023-03-04T02:11:41.702Z,13.33
2023-03-04T02:14:11.121Z,12.33
2023-03-04T02:16:41.035Z,12.80
2023-03-04T02:19:15.578Z,13.00
2023-03-04T02:21:43.841Z,12.27
2023-03-04T02:24:19.218Z,12.03
2023-03-04T02:26:48.833Z,12.40
2023-03-04T02:29:19.263Z,12.83
2023-03-04T02:31:50.324Z,13.77
2023-03-04T02:34:21.548Z,14.37
2023-03-04T02:36:52.703Z,15.87
2023-03-04T02:39:29.843Z,15.77
2023-03-04T02:42:00.925Z,15.50
2023-03-04T02:44:32.682Z,14.80
2023-03-04T02:47:01.514Z,15.87
2023-03-04T02:49:32.564Z,15.43
2023-03-04T02:52:04.286Z,16.97
2023-03-04T02:54:32.817Z,15.90
2023-03-04T02:57:05.692Z,16.73
2023-03-04T02:59:34.045Z,15.33
2023-03-04T03:02:02.628Z,15.10
2023-03-04T03:04:31.067Z,16.10
2023-03-04T03:06:59.379Z,14.23
2023-03-04T03:09:27.584Z,13.97
2023-03-04T03:11:55.885Z,14.37
2023-03-04T03:14:25.466Z,13.30
2023-03-04T03:16:53.790Z,13.17
2023-03-04T03:19:22.034Z,13.73
2023-03-04T03:21:51.112Z,12.50
2023-03-04T03:24:20.216Z,12.80
2023-03-04T03:26:48.487Z,12.50
2023-03-04T03:29:16.699Z,13.37
2023-03-04T03:31:46.340Z,11.97
2023-03-04T03:34:14.591Z,14.07
2023-03-04T03:36:42.842Z,13.40
2023-03-04T03:39:11.374Z,14.10
2023-03-04T03:41:39.618Z,14.63
2023-03-04T03:44:07.821Z,13.43
2023-03-04T03:46:36.310Z,14.67
2023-03-04T03:49:05.925Z,15.13
2023-03-04T03:51:34.205Z,14.90
2023-03-04T03:54:02.459Z,14.97
2023-03-04T03:56:30.720Z,14.60
2023-03-04T03:58:59.858Z,15.73
2023-03-04T04:01:28.515Z,15.83
2023-03-04T04:03:56.813Z,14.37
2023-03-04T04:06:26.706Z,13.87
2023-03-04T04:08:54.975Z,14.40
2023-03-04T04:11:23.654Z,14.33
2023-03-04T04:13:51.905Z,14.73
2023-03-04T04:16:20.155Z,16.33
2023-03-04T04:18:48.410Z,15.20
2023-03-04T04:21:17.376Z,15.70
2023-03-04T04:23:47.037Z,14.67
2023-03-04T04:26:15.378Z,14.67
2023-03-04T04:28:43.633Z,15.23
2023-03-04T04:31:12.016Z,15.37
2023-03-04T04:33:40.356Z,15.97
2023-03-04T04:36:12.206Z,14.30
2023-03-04T04:38:40.420Z,15.70
2023-03-04T04:41:21.464Z,16.87
2023-03-04T04:43:50.057Z,15.13
2023-03-04T04:46:19.154Z,15.87
2023-03-04T04:48:48.169Z,15.00
2023-03-04T04:51:16.755Z,14.70
2023-03-04T04:53:45.841Z,16.23
2023-03-04T04:56:18.277Z,16.60
2023-03-04T04:58:49.616Z,14.10
2023-03-04T05:01:18.246Z,14.53
2023-03-04T05:03:46.652Z,14.93
2023-03-04T05:06:15.141Z,16.73
2023-03-04T05:08:43.671Z,13.90
2023-03-04T05:11:11.992Z,13.70
2023-03-04T05:13:41.773Z,15.63
2023-03-04T05:16:10.709Z,15.07
2023-03-04T05:18:39.043Z,15.33
2023-03-04T05:21:08.026Z,13.70
2023-03-04T05:23:39.788Z,14.40
2023-03-04T05:26:09.317Z,13.97
2023-03-04T05:28:37.565Z,13.77
2023-03-04T05:31:07.451Z,13.40
2023-03-04T05:33:36.099Z,13.63
2023-03-04T05:36:05.448Z,13.80
2023-03-04T05:38:33.718Z,13.20
2023-03-04T05:41:04.032Z,13.60
2023-03-04T05:43:34.326Z,13.27
2023-03-04T05:46:03.331Z,14.00
2023-03-04T05:48:33.075Z,13.87
2023-03-04T05:51:02.983Z,13.53
2023-03-04T05:53:31.525Z,14.17
2023-03-04T05:55:59.995Z,15.23
2023-03-04T05:58:28.319Z,13.83
2023-03-04T06:00:56.579Z,14.33
2023-03-04T06:03:26.308Z,15.37
2023-03-04T06:05:56.654Z,15.00
2023-03-04T06:08:25.282Z,15.30
2023-03-04T06:10:56.082Z,14.30
2023-03-04T06:13:25.088Z,15.57
2023-03-04T06:15:56.360Z,15.23
2023-03-04T06:18:27.121Z,15.47
2023-03-04T06:20:59.516Z,15.50
2023-03-04T06:23:28.742Z,14.53
2023-03-04T06:25:59.874Z,16.47
2023-03-04T06:28:28.288Z,15.13
2023-03-04T06:30:58.307Z,14.73
2023-03-04T06:33:26.718Z,14.53
2023-03-04T06:35:58.290Z,16.53
2023-03-04T06:38:27.520Z,16.33
2023-03-04T06:40:57.413Z,16.20
2023-03-04T06:43:25.966Z,15.73
2023-03-04T06:45:54.245Z,17.80
2023-03-04T06:48:22.509Z,17.03
2023-03-04T06:50:50.791Z,16.70
2023-03-04T06:53:20.449Z,19.07
2023-03-04T06:55:49.490Z,19.97
2023-03-04T06:58:18.210Z,21.83
2023-03-04T07:00:46.628Z,19.33
2023-03-04T07:03:15.038Z,21.63
2023-03-04T07:05:44.606Z,23.77
2023-03-04T07:08:12.941Z,22.53
2023-03-04T07:10:42.709Z,24.90
2023-03-04T07:13:10.955Z,24.90
2023-03-04T07:15:39.533Z,25.40
2023-03-04T07:18:07.894Z,26.87
2023-03-04T07:20:36.226Z,27.30
2023-03-04T07:23:04.547Z,26.10
2023-03-04T07:25:32.828Z,30.57
2023-03-04T07:28:02.476Z,26.23
2023-03-04T07:30:30.758Z,24.17
2023-03-04T07:32:59.440Z,22.33
2023-03-04T07:35:27.771Z,21.93
2023-03-04T07:37:56.192Z,21.30
2023-03-04T07:40:24.472Z,20.93
2023-03-04T07:42:53.093Z,18.00
2023-03-04T07:45:23.910Z,17.87
2023-03-04T07:47:52.451Z,16.83
2023-03-04T07:50:21.165Z,16.20
2023-03-04T07:52:51.949Z,14.77
2023-03-04T07:55:20.788Z,15.53
2023-03-04T07:57:49.443Z,15.53
2023-03-04T08:00:19.483Z,16.23
2023-03-04T08:02:49.172Z,16.03
2023-03-04T08:05:17.698Z,16.60
2023-03-04T08:07:45.986Z,16.33
2023-03-04T08:10:14.306Z,15.37
2023-03-04T08:12:42.634Z,14.73
2023-03-04T08:15:12.271Z,15.83
2023-03-04T08:17:40.582Z,14.57
2023-03-04T08:20:12.987Z,14.90
2023-03-04T08:22:41.380Z,15.23
2023-03-04T08:25:10.698Z,15.00
2023-03-04T08:27:39.123Z,14.90
2023-03-04T08:30:09.020Z,14.87
2023-03-04T08:32:37.471Z,14.10
2023-03-04T08:35:06.641Z,13.63
2023-03-04T08:37:36.245Z,14.60
2023-03-04T08:40:05.213Z,13.90
2023-03-04T08:42:33.522Z,13.90
2023-03-04T08:45:01.752Z,13.10
2023-03-04T08:47:30.086Z,11.03
2023-03-04T08:49:58.948Z,10.80
2023-03-04T08:52:27.362Z,11.10
2023-03-04T08:54:57.165Z,11.20
2023-03-04T08:57:26.003Z,10.80
2023-03-04T08:59:54.358Z,11.87
2023-03-04T09:02:22.598Z,11.07
2023-03-04T09:04:50.863Z,10.37
2023-03-04T09:07:19.221Z,10.80
2023-03-04T09:09:47.502Z,10.87
2023-03-04T09:12:17.223Z,11.20
2023-03-04T09:14:45.468Z,12.00
2023-03-04T09:17:13.776Z,11.10
2023-03-04T09:19:42.281Z,10.97
2023-03-04T09:22:10.603Z,10.97
2023-03-04T09:24:38.907Z,10.83
2023-03-04T09:27:07.198Z,10.40
2023-03-04T09:29:36.843Z,11.10
2023-03-04T09:32:05.340Z,10.93
2023-03-04T09:34:33.597Z,11.27
2023-03-04T09:37:01.898Z,11.70
2023-03-04T09:39:30.168Z,11.07
2023-03-04T09:42:00.196Z,12.43
2023-03-04T09:44:33.930Z,11.90
2023-03-04T09:47:07.933Z,12.37
2023-03-04T09:49:38.598Z,13.63
2023-03-04T09:52:20.317Z,13.90
2023-03-04T09:55:04.556Z,12.43
2023-03-04T09:57:48.922Z,13.23
2023-03-04T10:00:24.139Z,12.90
2023-03-04T10:03:14.166Z,12.40
2023-03-04T10:05:50.715Z,12.70
2023-03-04T10:08:40.244Z,13.37
2023-03-04T10:11:15.551Z,13.47
2023-03-04T10:13:56.717Z,13.07
2023-03-04T10:16:31.750Z,12.60
2023-03-04T10:19:19.840Z,12.83
2023-03-04T10:21:50.772Z,13.27
2023-03-04T10:24:22.669Z,13.23
2023-03-04T10:26:55.194Z,13.07
2023-03-04T10:29:25.489Z,13.07
2023-03-04T10:31:56.067Z,12.50
2023-03-04T10:34:26.515Z,12.27
2023-03-04T10:37:01.630Z,12.57
2023-03-04T10:39:32.848Z,12.67
2023-03-04T10:42:04.800Z,12.30
2023-03-04T10:44:35.167Z,11.23
2023-03-04T10:47:03.771Z,12.20
2023-03-04T10:49:33.431Z,12.17
2023-03-04T10:52:16.678Z,12.00
2023-03-04T10:54:51.511Z,11.97
2023-03-04T10:57:22.968Z,11.40
2023-03-04T10:59:56.852Z,12.37
2023-03-04T11:02:28.695Z,12.13
2023-03-04T11:05:18.784Z,11.73
2023-03-04T11:07:56.746Z,11.20
2023-03-04T11:10:30.299Z,10.80
2023-03-04T11:13:03.814Z,11.80
2023-03-04T11:15:49.753Z,11.50
2023-03-04T11:18:21.495Z,10.37
2023-03-04T11:20:53.053Z,10.07
2023-03-04T11:23:30.143Z,10.87
2023-03-04T11:26:03.936Z,10.60
2023-03-04T11:28:42.055Z,11.57
2023-03-04T11:31:16.844Z,10.77
2023-03-04T11:33:54.360Z,11.03
2023-03-04T11:36:35.373Z,10.67
2023-03-04T11:39:06.331Z,11.87
2023-03-04T11:41:37.923Z,10.20
2023-03-04T11:44:08.909Z,10.87
2023-03-04T11:46:58.232Z,13.40
2023-03-04T11:50:05.856Z,12.33
2023-03-04T11:53:07.069Z,13.63
2023-03-04T11:55:46.949Z,11.20
2023-03-04T11:58:42.305Z,12.83
2023-03-04T12:01:12.021Z,10.50
2023-03-04T12:04:08.585Z,12.57
2023-03-04T12:06:49.684Z,12.07
2023-03-04T12:09:32.558Z,11.53
2023-03-04T12:12:15.204Z,12.63
2023-03-04T12:14:49.037Z,10.70
2023-03-04T12:18:02.408Z,12.23
2023-03-04T12:20:59.811Z,11.20
2023-03-04T12:23:49.913Z,11.67
2023-03-04T12:26:31.953Z,12.57
2023-03-04T12:29:08.810Z,15.10
2023-03-04T12:31:40.440Z,13.10
2023-03-04T12:34:43.949Z,14.00
2023-03-04T12:37:56.660Z,14.67
2023-03-04T12:40:40.035Z,13.27
2023-03-04T12:43:36.289Z,12.47
2023-03-04T12:46:19.921Z,11.73
2023-03-04T12:49:03.997Z,10.77
2023-03-04T12:51:37.829Z,10.33
2023-03-04T12:54:21.292Z,11.27
2023-03-04T12:56:55.768Z,12.83
2023-03-04T12:59:28.088Z,11.67
2023-03-04T13:02:11.406Z,12.20
2023-03-04T13:04:55.249Z,12.50
2023-03-04T13:07:41.655Z,13.73
2023-03-04T13:10:14.471Z,12.53
2023-03-04T13:12:51.428Z,12.23
2023-03-04T13:15:35.104Z,12.37
2023-03-04T13:18:32.462Z,11.80
2023-03-04T13:21:25.199Z,11.13
2023-03-04T13:23:54.570Z,11.73
2023-03-04T13:26:31.237Z,11.83
2023-03-04T13:29:33.757Z,12.97
2023-03-04T13:32:09.782Z,12.60
2023-03-04T13:34:51.808Z,12.03
2023-03-04T13:37:33.262Z,12.37
2023-03-04T13:40:35.984Z,13.27
2023-03-04T13:43:42.657Z,12.50
2023-03-04T13:46:42.970Z,12.23
2023-03-04T13:49:23.679Z,12.57
2023-03-04T13:51:52.789Z,12.60
2023-03-04T13:54:28.704Z,13.73
2023-03-04T13:57:17.179Z,12.33
2023-03-04T13:59:47.817Z,13.13
2023-03-04T14:02:22.077Z,13.20
2023-03-04T14:05:02.148Z,12.60
2023-03-04T14:07:33.122Z,12.93
2023-03-04T14:10:05.187Z,12.73
2023-03-04T14:12:36.288Z,12.43
2023-03-04T14:15:16.843Z,12.40
2023-03-04T14:17:51.569Z,13.83
2023-03-04T14:20:28.106Z,12.93
2023-03-04T14:22:57.324Z,12.77
2023-03-04T14:25:29.787Z,13.43
2023-03-04T14:28:07.550Z,12.33
2023-03-04T14:30:43.154Z,13.30
2023-03-04T14:33:19.317Z,15.10
2023-03-04T14:35:51.436Z,15.77
2023-03-04T14:38:25.911Z,17.30
2023-03-04T14:40:59.026Z,18.80
2023-03-04T14:43:29.504Z,15.93
2023-03-04T14:46:00.119Z,15.03
2023-03-04T14:48:32.517Z,14.50
2023-03-04T14:51:03.930Z,13.30
2023-03-04T14:53:34.294Z,12.90
2023-03-04T14:56:05.544Z,13.90
2023-03-04T14:58:35.450Z,15.23
2023-03-04T15:01:16.751Z,12.87
2023-03-04T15:03:57.638Z,13.20
2023-03-04T15:06:29.336Z,13.93
2023-03-04T15:09:00.791Z,12.97
2023-03-04T15:11:33.130Z,13.53
2023-03-04T15:14:02.721Z,12.13
2023-03-04T15:16:55.896Z,14.53
2023-03-04T15:19:28.881Z,13.80
2023-03-04T15:22:08.209Z,14.20
2023-03-04T15:24:36.407Z,14.83
2023-03-04T15:27:08.131Z,13.40
2023-03-04T15:29:36.541Z,13.57
2023-03-04T15:32:05.252Z,12.70
2023-03-04T15:34:33.476Z,13.63
2023-03-04T15:37:01.903Z,14.00
2023-03-04T15:39:31.564Z,13.00
2023-03-04T15:42:00.059Z,13.70
2023-03-04T15:44:28.337Z,12.73
2023-03-04T15:46:56.819Z,15.93
2023-03-04T15:49:25.062Z,13.27
2023-03-04T15:51:53.673Z,12.77
2023-03-04T15:54:23.976Z,13.97
2023-03-04T15:56:53.641Z,12.37
2023-03-04T15:59:21.878Z,12.77
2023-03-04T16:01:50.123Z,12.13
2023-03-04T16:04:19.472Z,13.53
2023-03-04T16:06:50.086Z,13.43
2023-03-04T16:09:21.712Z,13.53
2023-03-04T16:11:50.096Z,13.60
2023-03-04T16:14:19.748Z,14.03
2023-03-04T16:16:48.177Z,12.93
2023-03-04T16:19:16.741Z,13.10
2023-03-04T16:21:45.013Z,13.53
2023-03-04T16:24:19.387Z,11.93
2023-03-04T16:26:48.072Z,13.10
2023-03-04T16:29:17.436Z,13.77
2023-03-04T16:31:47.005Z,13.23
2023-03-04T16:34:15.459Z,12.33
2023-03-04T16:36:43.810Z,11.93
2023-03-04T16:39:21.278Z,13.17
2023-03-04T16:41:50.077Z,13.47
2023-03-04T16:44:18.430Z,12.37
2023-03-04T16:46:48.160Z,13.37
2023-03-04T16:49:16.564Z,12.93
2023-03-04T16:51:49.525Z,12.97
2023-03-04T16:54:24.685Z,12.17
2023-03-04T16:56:53.014Z,12.63
2023-03-04T16:59:21.421Z,12.97
2023-03-04T17:01:51.280Z,12.93
2023-03-04T17:04:19.725Z,13.07
2023-03-04T17:06:48.120Z,12.00
2023-03-04T17:09:16.651Z,12.53
2023-03-04T17:11:44.922Z,13.17
2023-03-04T17:14:13.809Z,13.20
2023-03-04T17:16:42.068Z,12.50
2023-03-04T17:19:11.668Z,12.90
2023-03-04T17:21:39.973Z,13.93
2023-03-04T17:24:11.330Z,12.80
2023-03-04T17:26:40.689Z,13.03
2023-03-04T17:29:08.944Z,13.87
2023-03-04T17:31:37.855Z,13.87
2023-03-04T17:34:06.133Z,14.23
2023-03-04T17:36:36.302Z,12.47
2023-03-04T17:39:06.837Z,12.97
2023-03-04T17:41:36.308Z,13.23
2023-03-04T17:44:05.872Z,13.60
2023-03-04T17:46:34.363Z,13.53
2023-03-04T17:49:02.811Z,12.53
2023-03-04T17:51:37.706Z,12.47
2023-03-04T17:54:08.649Z,12.80
2023-03-04T17:56:39.388Z,12.07
2023-03-04T17:59:10.152Z,12.57
2023-03-04T18:01:38.649Z,13.80
2023-03-04T18:04:07.445Z,13.50
2023-03-04T18:06:38.211Z,12.67
2023-03-04T18:09:07.220Z,12.20
2023-03-04T18:11:39.828Z,12.80
2023-03-04T18:14:08.492Z,12.93
2023-03-04T18:16:37.141Z,13.77
2023-03-04T18:19:06.499Z,12.57
2023-03-04T18:21:36.510Z,12.50
2023-03-04T18:24:05.875Z,12.90
2023-03-04T18:26:34.489Z,12.67
2023-03-04T18:29:02.873Z,12.43
2023-03-04T18:31:32.955Z,12.43
2023-03-04T18:34:03.948Z,13.03
2023-03-04T18:36:32.474Z,13.57
2023-03-04T18:39:04.633Z,13.13
2023-03-04T18:41:32.936Z,13.53
2023-03-04T18:44:01.303Z,11.93
2023-03-04T18:46:40.107Z,11.73
2023-03-04T18:49:10.160Z,11.97
2023-03-04T18:51:38.630Z,13.20
2023-03-04T18:54:09.294Z,11.83
2023-03-04T18:56:41.735Z,12.30
2023-03-04T18:59:16.017Z,11.67
2023-03-04T19:01:44.611Z,13.00
2023-03-04T19:04:14.044Z,11.50
2023-03-04T19:06:42.376Z,11.73
2023-03-04T19:09:12.171Z,11.73
2023-03-04T19:11:40.491Z,11.77
2023-03-04T19:14:08.904Z,10.70
2023-03-04T19:16:37.217Z,12.10
2023-03-04T19:19:05.774Z,12.73
2023-03-04T19:21:38.595Z,12.50
2023-03-04T19:24:07.982Z,11.40
2023-03-04T19:26:37.651Z,11.37
2023-03-04T19:29:07.319Z,10.93
2023-03-04T19:31:41.092Z,11.77
2023-03-04T19:34:09.845Z,10.60
2023-03-04T19:36:38.341Z,9.77
2023-03-04T19:39:07.261Z,9.60
2023-03-04T19:41:37.124Z,11.07
2023-03-04T19:44:05.598Z,10.43
2023-03-04T19:46:33.998Z,9.67
2023-03-04T19:49:04.689Z,9.13
2023-03-04T19:51:33.351Z,9.67
2023-03-04T19:54:01.880Z,9.47
2023-03-04T19:56:30.610Z,9.43
2023-03-04T19:59:02.120Z,11.23
2023-03-04T20:01:33.749Z,9.53
2023-03-04T20:04:04.404Z,10.57
2023-03-04T20:06:32.901Z,9.87
2023-03-04T20:09:02.214Z,14.53
2023-03-04T20:11:31.609Z,12.13
2023-03-04T20:14:03.295Z,11.80
2023-03-04T20:16:33.027Z,11.20
2023-03-04T20:19:01.774Z,10.30
2023-03-04T20:21:34.092Z,11.40
2023-03-04T20:24:03.229Z,11.53
2023-03-04T20:26:33.067Z,12.13
2023-03-04T20:29:02.865Z,12.33
2023-03-04T20:31:35.066Z,17.93
2023-03-04T20:34:04.618Z,16.73
2023-03-04T20:36:34.510Z,17.47
2023-03-04T20:39:10.196Z,14.20
2023-03-04T20:41:43.767Z,18.00
2023-03-04T20:44:13.626Z,16.13
2023-03-04T20:46:45.328Z,14.17
2023-03-04T20:49:16.713Z,14.13
2023-03-04T20:51:45.240Z,14.03
2023-03-04T20:54:13.571Z,13.13
2023-03-04T20:56:42.233Z,15.10
2023-03-04T20:59:13.482Z,14.03
2023-03-04T21:01:44.933Z,14.43
2023-03-04T21:04:13.381Z,12.10
2023-03-04T21:06:42.119Z,13.23
2023-03-04T21:09:14.812Z,14.07
2023-03-04T21:11:44.294Z,15.27
2023-03-04T21:14:19.281Z,13.73
2023-03-04T21:16:48.151Z,13.33
2023-03-04T21:19:18.935Z,14.03
2023-03-04T21:21:49.032Z,13.63
2023-03-04T21:24:20.146Z,12.93
2023-03-04T21:26:48.928Z,13.30
2023-03-04T21:29:21.174Z,12.87
2023-03-04T21:31:54.189Z,11.87
2023-03-04T21:34:26.842Z,12.93
2023-03-04T21:36:55.236Z,12.60
2023-03-04T21:39:25.571Z,13.87
2023-03-04T21:41:55.461Z,13.50
2023-03-04T21:44:33.744Z,11.93
2023-03-04T21:47:13.717Z,13.17
2023-03-04T21:49:42.048Z,13.23
2023-03-04T21:52:10.421Z,11.73
2023-03-04T21:54:39.059Z,12.77
2023-03-04T21:57:07.367Z,12.07
2023-03-04T21:59:37.179Z,11.57
2023-03-04T22:02:05.563Z,12.07
2023-03-04T22:04:33.925Z,13.47
2023-03-04T22:07:03.450Z,12.83
2023-03-04T22:09:31.808Z,12.53
2023-03-04T22:12:00.145Z,12.23
2023-03-04T22:14:29.563Z,12.97
2023-03-04T22:17:00.146Z,12.50
2023-03-04T22:19:32.136Z,13.13
2023-03-04T22:22:00.441Z,13.07
2023-03-04T22:24:28.868Z,13.90
2023-03-04T22:26:59.834Z,12.43
2023-03-04T22:29:28.156Z,12.43
2023-03-04T22:31:56.716Z,11.93
2023-03-04T22:34:26.602Z,12.70
2023-03-04T22:36:54.946Z,12.47
2023-03-04T22:39:23.517Z,13.50
2023-03-04T22:41:51.850Z,12.43
2023-03-04T22:44:20.310Z,15.80
2023-03-04T22:46:48.674Z,13.73
2023-03-04T22:49:16.995Z,13.37
2023-03-04T22:51:46.849Z,11.60
2023-03-04T22:54:16.264Z,12.77
2023-03-04T22:56:45.537Z,13.23
2023-03-04T22:59:14.593Z,12.70
2023-03-04T23:01:43.188Z,11.33
2023-03-04T23:04:11.993Z,11.73
2023-03-04T23:06:40.286Z,12.70
2023-03-04T23:09:10.119Z,11.47
2023-03-04T23:11:39.406Z,12.10
2023-03-04T23:14:09.185Z,12.87
2023-03-04T23:16:42.384Z,12.20
2023-03-04T23:19:14.333Z,11.97
2023-03-04T23:21:43.209Z,11.80
2023-03-04T23:24:14.709Z,12.93
2023-03-04T23:26:45.251Z,13.40
2023-03-04T23:29:16.545Z,13.73
2023-03-04T23:31:45.327Z,12.73
2023-03-04T23:34:13.765Z,13.03
2023-03-04T23:36:42.087Z,12.40
2023-03-04T23:39:11.683Z,12.73
2023-03-04T23:41:41.708Z,13.23
2023-03-04T23:44:11.683Z,13.47
2023-03-04T23:46:40.198Z,13.20
2023-03-04T23:49:10.152Z,12.73
2023-03-04T23:51:40.826Z,13.50
2023-03-04T23:54:09.243Z,13.83
2023-03-04T23:56:37.571Z,13.00
2023-03-04T23:59:07.684Z,14.43
